createdAt,value
2022-12-17T00:01:50.932Z,-3.96
2022-12-17T00:04:37.717Z,-3.99
2022-12-17T00:07:22.782Z,-4.02
2022-12-17T00:10:07.993Z,-4.00
2022-12-17T00:12:52.810Z,-3.99
2022-12-17T00:15:41.697Z,-3.94
2022-12-17T00:18:29.979Z,-3.97
2022-12-17T00:21:16.773Z,-4.00
2022-12-17T00:24:02.475Z,-4.07
2022-12-17T00:26:47.907Z,-3.94
2022-12-17T00:29:32.788Z,-3.98
2022-12-17T00:32:18.248Z,-3.94
2022-12-17T00:35:03.456Z,-4.07
2022-12-17T00:37:49.073Z,-4.07
2022-12-17T00:40:34.395Z,-4.00
2022-12-17T00:43:26.661Z,-4.03
2022-12-17T00:46:12.444Z,-4.05
2022-12-17T00:48:57.690Z,-4.09
2022-12-17T00:51:43.306Z,-3.91
2022-12-17T00:54:29.115Z,-3.99
2022-12-17T00:57:14.283Z,-4.06
2022-12-17T00:59:59.500Z,-4.01
2022-12-17T01:02:45.372Z,-4.06
2022-12-17T01:05:31.209Z,-4.16
2022-12-17T01:08:24.869Z,-4.16
2022-12-17T01:11:10.033Z,-4.16
2022-12-17T01:13:56.090Z,-4.15
2022-12-17T01:16:41.798Z,-4.17
2022-12-17T01:19:27.181Z,-4.14
2022-12-17T01:22:12.561Z,-4.00
2022-12-17T01:24:57.712Z,-4.15
2022-12-17T01:27:44.708Z,-4.17
2022-12-17T01:30:29.856Z,-4.20
2022-12-17T01:33:26.335Z,-4.24
2022-12-17T01:36:16.072Z,-4.24
2022-12-17T01:39:02.105Z,-4.31
2022-12-17T01:41:47.901Z,-4.28
2022-12-17T01:44:58.181Z,-4.30
2022-12-17T01:48:07.962Z,-4.27
2022-12-17T01:50:57.373Z,-4.36
2022-12-17T01:53:49.815Z,-4.31
2022-12-17T01:56:36.344Z,-4.42
2022-12-17T01:59:24.543Z,-4.43
2022-12-17T02:02:09.662Z,-4.37
2022-12-17T02:04:55.303Z,-4.48
2022-12-17T02:08:01.645Z,-4.70
2022-12-17T02:10:58.527Z,-4.86
2022-12-17T02:13:51.202Z,-5.03
2022-12-17T02:16:41.252Z,-5.05
2022-12-17T02:19:49.313Z,-5.22
2022-12-17T02:22:57.211Z,-5.36
2022-12-17T02:26:15.366Z,-5.42
2022-12-17T02:29:07.178Z,-5.46
2022-12-17T02:31:55.080Z,-5.53
2022-12-17T02:34:42.345Z,-5.56
2022-12-17T02:37:28.848Z,-5.51
2022-12-17T02:40:14.352Z,-5.47
2022-12-17T02:43:02.014Z,-5.42
2022-12-17T02:45:48.485Z,-5.39
2022-12-17T02:48:36.905Z,-5.43
2022-12-17T02:51:22.178Z,-5.45
2022-12-17T02:54:11.522Z,-5.41
2022-12-17T02:56:57.069Z,-5.42
2022-12-17T02:59:42.994Z,-5.43
2022-12-17T03:02:33.669Z,-5.48
2022-12-17T03:05:43.547Z,-5.46
2022-12-17T03:08:24.045Z,-5.42
2022-12-17T03:11:09.366Z,-5.45
2022-12-17T03:13:54.484Z,-5.43
2022-12-17T03:16:39.790Z,-5.39
2022-12-17T03:19:24.955Z,-5.34
2022-12-17T03:22:10.616Z,-5.33
2022-12-17T03:25:00.312Z,-5.41
2022-12-17T03:27:45.967Z,-5.46
2022-12-17T03:30:35.719Z,-5.44
2022-12-17T03:33:21.175Z,-5.44
2022-12-17T03:36:06.508Z,-5.43
2022-12-17T03:38:51.313Z,-5.51
2022-12-17T03:41:36.474Z,-5.42
2022-12-17T03:44:21.254Z,-5.34
2022-12-17T03:47:06.464Z,-5.35
2022-12-17T03:49:51.690Z,-5.39
2022-12-17T03:52:36.711Z,-5.35
2022-12-17T03:55:22.193Z,-5.32
2022-12-17T03:58:07.587Z,-5.23
2022-12-17T04:00:52.614Z,-5.16
2022-12-17T04:03:37.881Z,-5.26
2022-12-17T04:06:23.428Z,-5.06
2022-12-17T04:09:08.568Z,-5.06
2022-12-17T04:11:53.822Z,-5.03
2022-12-17T04:14:39.152Z,-5.16
2022-12-17T04:17:24.350Z,-5.19
2022-12-17T04:20:09.343Z,-5.27
2022-12-17T04:22:54.466Z,-5.27
2022-12-17T04:25:39.594Z,-5.31
2022-12-17T04:28:24.828Z,-5.30
2022-12-17T04:31:10.122Z,-5.30
2022-12-17T04:33:55.396Z,-5.32
2022-12-17T04:36:40.596Z,-5.32
2022-12-17T04:39:25.917Z,-5.30
2022-12-17T04:42:10.774Z,-5.35
2022-12-17T04:44:56.065Z,-5.49
2022-12-17T04:47:40.937Z,-5.46
2022-12-17T04:50:26.146Z,-5.43
2022-12-17T04:53:19.141Z,-5.50
2022-12-17T04:56:05.029Z,-5.35
2022-12-17T04:58:50.814Z,-5.45
2022-12-17T05:01:36.279Z,-5.42
2022-12-17T05:04:22.034Z,-5.49
2022-12-17T05:07:07.255Z,-5.61
2022-12-17T05:09:52.307Z,-5.72
2022-12-17T05:12:37.205Z,-5.68
2022-12-17T05:15:22.614Z,-5.75
2022-12-17T05:18:10.454Z,-5.75
2022-12-17T05:20:55.578Z,-5.84
2022-12-17T05:23:41.000Z,-5.88
2022-12-17T05:26:46.950Z,-5.96
2022-12-17T05:29:32.661Z,-5.97
2022-12-17T05:32:17.787Z,-6.18
2022-12-17T05:35:02.860Z,-6.24
2022-12-17T05:37:48.066Z,-6.40
2022-12-17T05:40:33.306Z,-6.57
2022-12-17T05:43:25.395Z,-6.64
2022-12-17T05:46:10.424Z,-6.77
2022-12-17T05:48:55.759Z,-6.80
2022-12-17T05:51:41.107Z,-6.90
2022-12-17T05:54:26.797Z,-6.94
2022-12-17T05:57:12.994Z,-7.04
2022-12-17T05:59:58.329Z,-7.13
2022-12-17T06:02:43.778Z,-7.28
2022-12-17T06:05:29.529Z,-7.41
2022-12-17T06:08:26.050Z,-7.53
2022-12-17T06:11:11.485Z,-7.57
2022-12-17T06:13:56.655Z,-7.55
2022-12-17T06:16:42.153Z,-7.72
2022-12-17T06:19:27.429Z,-7.86
2022-12-17T06:22:12.646Z,-8.04
2022-12-17T06:24:57.760Z,-8.16
2022-12-17T06:27:42.896Z,-8.18
2022-12-17T06:30:28.608Z,-8.24
2022-12-17T06:33:28.529Z,-8.45
2022-12-17T06:36:29.202Z,-8.45
2022-12-17T06:39:14.230Z,-8.63
2022-12-17T06:42:04.308Z,-8.86
2022-12-17T06:44:50.572Z,-9.17
2022-12-17T06:47:35.811Z,-9.42
2022-12-17T06:50:20.929Z,-9.69
2022-12-17T06:53:05.698Z,-9.92
2022-12-17T06:55:54.082Z,-10.10
2022-12-17T06:58:38.925Z,-10.17
2022-12-17T07:01:24.224Z,-10.21
2022-12-17T07:04:09.576Z,-10.22
2022-12-17T07:06:54.536Z,-10.26
2022-12-17T07:09:39.783Z,-10.23
2022-12-17T07:12:25.113Z,-10.20
2022-12-17T07:15:10.407Z,-9.98
2022-12-17T07:17:55.466Z,-9.93
2022-12-17T07:20:40.650Z,-9.76
2022-12-17T07:23:25.636Z,-9.69
2022-12-17T07:26:10.444Z,-9.67
2022-12-17T07:28:55.750Z,-9.68
2022-12-17T07:31:40.752Z,-9.75
2022-12-17T07:34:25.830Z,-9.79
2022-12-17T07:37:11.817Z,-9.78
2022-12-17T07:39:58.829Z,-9.71
2022-12-17T07:42:44.113Z,-9.61
2022-12-17T07:45:29.259Z,-9.45
2022-12-17T07:48:14.445Z,-9.27
2022-12-17T07:50:59.564Z,-9.00
2022-12-17T07:53:44.824Z,-8.59
2022-12-17T07:56:29.768Z,-8.27
2022-12-17T07:59:14.683Z,-7.97
2022-12-17T08:02:00.314Z,-7.69
2022-12-17T08:04:45.327Z,-7.54
2022-12-17T08:07:30.508Z,-7.48
2022-12-17T08:10:15.699Z,-7.00
2022-12-17T08:13:01.005Z,-6.69
2022-12-17T08:15:45.945Z,-6.17
2022-12-17T08:18:30.989Z,-5.87
2022-12-17T08:21:18.314Z,-5.31
2022-12-17T08:24:03.460Z,-4.92
2022-12-17T08:26:48.638Z,-4.75
2022-12-17T08:29:33.848Z,-4.47
2022-12-17T08:32:18.698Z,-4.04
2022-12-17T08:35:03.950Z,-3.84
2022-12-17T08:37:49.542Z,-3.42
2022-12-17T08:40:36.901Z,-3.47
2022-12-17T08:43:22.213Z,-3.31
2022-12-17T08:46:09.140Z,-2.98
2022-12-17T08:48:54.987Z,-2.24
2022-12-17T08:51:41.528Z,-2.32
2022-12-17T08:54:26.927Z,-2.35
2022-12-17T08:57:12.477Z,-1.64
2022-12-17T08:59:57.582Z,-1.41
2022-12-17T09:03:03.230Z,-1.23
2022-12-17T09:05:48.625Z,-1.09
2022-12-17T09:08:33.756Z,-1.24
2022-12-17T09:11:19.714Z,-0.91
2022-12-17T09:14:04.759Z,-0.95
2022-12-17T09:16:49.706Z,-0.20
2022-12-17T09:19:34.902Z,0.10
2022-12-17T09:22:19.753Z,-0.14
2022-12-17T09:25:04.881Z,0.04
2022-12-17T09:28:09.758Z,0.08
2022-12-17T09:30:55.052Z,0.59
2022-12-17T09:33:40.462Z,-0.41
2022-12-17T09:36:26.466Z,-0.10
2022-12-17T09:39:11.614Z,0.49
2022-12-17T09:42:22.088Z,0.88
2022-12-17T09:45:26.628Z,1.88
2022-12-17T09:48:32.733Z,2.05
2022-12-17T09:51:17.917Z,2.55
2022-12-17T09:54:10.976Z,2.36
2022-12-17T09:56:58.123Z,2.03
2022-12-17T09:59:47.860Z,1.53
2022-12-17T10:02:41.604Z,1.70
2022-12-17T10:05:36.957Z,0.77
2022-12-17T10:08:25.094Z,0.97
2022-12-17T10:11:11.795Z,0.94
2022-12-17T10:13:56.972Z,0.92
2022-12-17T10:16:53.662Z,2.96
2022-12-17T10:19:48.799Z,3.47
2022-12-17T10:22:39.209Z,2.24
2022-12-17T10:25:41.716Z,1.62
2022-12-17T10:28:34.556Z,1.23
2022-12-17T10:31:25.791Z,-0.12
2022-12-17T10:34:15.626Z,-1.34
2022-12-17T10:37:10.285Z,-2.42
2022-12-17T10:39:57.154Z,-1.51
2022-12-17T10:42:44.849Z,-0.37
2022-12-17T10:45:44.155Z,0.30
2022-12-17T10:48:39.508Z,0.25
2022-12-17T10:51:53.711Z,0.94
2022-12-17T10:54:49.091Z,2.79
2022-12-17T10:57:50.115Z,3.40
2022-12-17T11:00:50.429Z,1.78
2022-12-17T11:03:54.317Z,1.21
2022-12-17T11:06:45.673Z,0.50
2022-12-17T11:09:40.015Z,0.78
2022-12-17T11:12:30.801Z,1.20
2022-12-17T11:15:22.577Z,1.67
2022-12-17T11:18:11.642Z,3.08
2022-12-17T11:21:09.425Z,3.94
2022-12-17T11:24:01.222Z,3.74
2022-12-17T11:26:48.919Z,4.01
2022-12-17T11:29:34.177Z,5.26
2022-12-17T11:33:03.962Z,5.84
2022-12-17T11:36:02.271Z,5.72
2022-12-17T11:38:57.084Z,4.94
2022-12-17T11:42:11.618Z,5.51
2022-12-17T11:45:21.364Z,5.57
2022-12-17T11:48:17.377Z,5.02
2022-12-17T11:51:09.625Z,5.98
2022-12-17T11:54:16.619Z,4.55
2022-12-17T11:57:08.427Z,3.35
2022-12-17T12:00:03.789Z,3.15
2022-12-17T12:03:08.907Z,2.66
2022-12-17T12:06:29.328Z,3.34
2022-12-17T12:09:35.895Z,3.59
2022-12-17T12:12:42.465Z,3.20
2022-12-17T12:15:36.625Z,4.31
2022-12-17T12:18:43.141Z,5.04
2022-12-17T12:21:38.870Z,5.35
2022-12-17T12:24:51.034Z,4.39
2022-12-17T12:27:42.252Z,4.22
2022-12-17T12:30:43.402Z,4.27
2022-12-17T12:33:53.349Z,4.02
2022-12-17T12:36:40.638Z,3.50
2022-12-17T12:39:31.243Z,4.31
2022-12-17T12:42:40.069Z,4.47
2022-12-17T12:45:25.484Z,5.00
2022-12-17T12:48:44.266Z,4.59
2022-12-17T12:51:35.492Z,3.55
2022-12-17T12:54:58.708Z,2.66
2022-12-17T12:57:49.989Z,2.86
2022-12-17T13:00:56.978Z,1.74
2022-12-17T13:03:50.368Z,2.75
2022-12-17T13:06:52.468Z,2.30
2022-12-17T13:09:20.881Z,1.61
2022-12-17T13:12:02.621Z,1.74
2022-12-17T13:14:46.163Z,1.28
2022-12-17T13:17:38.482Z,0.95
2022-12-17T13:20:23.587Z,0.81
2022-12-17T13:22:52.941Z,0.33
2022-12-17T13:25:23.521Z,0.07
2022-12-17T13:27:52.672Z,-0.33
2022-12-17T13:30:22.197Z,-0.19
2022-12-17T13:33:03.749Z,0.18
2022-12-17T13:35:33.473Z,0.05
2022-12-17T13:38:23.201Z,-0.29
2022-12-17T13:40:55.666Z,-0.04
2022-12-17T13:43:27.230Z,-0.25
2022-12-17T13:45:55.701Z,-0.40
2022-12-17T13:48:26.147Z,-0.63
2022-12-17T13:50:59.918Z,-1.48
2022-12-17T13:53:28.345Z,-1.91
2022-12-17T13:55:56.796Z,-2.39
2022-12-17T13:58:25.311Z,-2.78
2022-12-17T14:01:27.061Z,-2.67
2022-12-17T14:04:07.310Z,-2.45
2022-12-17T14:06:37.873Z,-2.42
2022-12-17T14:09:05.344Z,-2.34
2022-12-17T14:11:51.527Z,-2.31
2022-12-17T14:14:26.939Z,-2.39
2022-12-17T14:16:55.021Z,-2.44
2022-12-17T14:19:22.719Z,-2.39
2022-12-17T14:21:49.501Z,-2.49
2022-12-17T14:24:18.968Z,-2.45
2022-12-17T14:26:57.536Z,-2.40
2022-12-17T14:29:29.461Z,-2.41
2022-12-17T14:31:59.170Z,-2.39
2022-12-17T14:34:26.261Z,-2.60
2022-12-17T14:37:00.678Z,-2.53
2022-12-17T14:39:30.317Z,-2.58
2022-12-17T14:42:29.470Z,-2.79
2022-12-17T14:45:01.125Z,-2.88
2022-12-17T14:47:36.110Z,-2.95
2022-12-17T14:50:11.923Z,-2.90
2022-12-17T14:52:58.983Z,-2.90
2022-12-17T14:55:25.573Z,-2.91
2022-12-17T14:57:53.379Z,-2.92
2022-12-17T15:00:21.193Z,-2.97
2022-12-17T15:02:54.562Z,-3.05
2022-12-17T15:05:21.408Z,-3.00
2022-12-17T15:07:48.130Z,-3.10
2022-12-17T15:10:19.349Z,-3.09
2022-12-17T15:12:46.148Z,-3.10
2022-12-17T15:15:14.190Z,-3.09
2022-12-17T15:17:40.855Z,-3.18
2022-12-17T15:20:21.748Z,-3.29
2022-12-17T15:22:48.430Z,-3.44
2022-12-17T15:25:19.219Z,-3.45
2022-12-17T15:27:46.490Z,-3.49
2022-12-17T15:30:14.809Z,-3.48
2022-12-17T15:32:44.031Z,-3.53
2022-12-17T15:35:12.287Z,-3.58
2022-12-17T15:37:38.953Z,-3.60
2022-12-17T15:40:07.252Z,-3.77
2022-12-17T15:42:52.350Z,-3.85
2022-12-17T15:45:19.477Z,-3.93
2022-12-17T15:47:46.197Z,-3.93
2022-12-17T15:50:12.762Z,-3.96
2022-12-17T15:52:39.348Z,-3.98
2022-12-17T15:55:06.472Z,-4.06
2022-12-17T15:57:33.103Z,-4.09
2022-12-17T15:59:59.645Z,-4.01
2022-12-17T16:02:26.418Z,-4.05
2022-12-17T16:04:53.184Z,-4.05
2022-12-17T16:07:19.778Z,-4.01
2022-12-17T16:09:46.353Z,-4.08
2022-12-17T16:12:12.978Z,-4.09
2022-12-17T16:14:39.543Z,-4.09
2022-12-17T16:17:06.133Z,-4.14
2022-12-17T16:19:32.706Z,-4.11
2022-12-17T16:22:00.646Z,-4.09
2022-12-17T16:24:27.210Z,-4.13
2022-12-17T16:26:53.800Z,-4.09
2022-12-17T16:29:20.415Z,-4.09
2022-12-17T16:31:46.985Z,-4.10
2022-12-17T16:34:13.744Z,-4.10
2022-12-17T16:36:40.405Z,-4.10
2022-12-17T16:39:07.340Z,-4.07
2022-12-17T16:41:34.042Z,-4.10
2022-12-17T16:44:01.127Z,-4.08
2022-12-17T16:46:27.751Z,-4.10
2022-12-17T16:48:56.180Z,-4.05
2022-12-17T16:51:28.790Z,-4.05
2022-12-17T16:53:56.547Z,-4.09
2022-12-17T16:56:45.521Z,-4.13
2022-12-17T16:59:13.781Z,-4.12
2022-12-17T17:01:42.087Z,-4.13
2022-12-17T17:04:09.828Z,-4.17
2022-12-17T17:06:40.997Z,-4.06
2022-12-17T17:09:08.084Z,-4.17
2022-12-17T17:11:35.772Z,-4.14
2022-12-17T17:14:04.335Z,-4.06
2022-12-17T17:16:31.201Z,-4.15
2022-12-17T17:18:57.827Z,-4.19
2022-12-17T17:21:31.364Z,-4.23
2022-12-17T17:24:01.261Z,-4.18
2022-12-17T17:26:30.374Z,-4.14
2022-12-17T17:28:56.970Z,-4.18
2022-12-17T17:31:26.614Z,-4.24
2022-12-17T17:33:57.277Z,-4.23
2022-12-17T17:36:29.113Z,-4.24
2022-12-17T17:38:59.654Z,-4.21
2022-12-17T17:41:27.943Z,-4.24
2022-12-17T17:43:58.573Z,-4.33
2022-12-17T17:46:26.865Z,-4.46
2022-12-17T17:48:57.102Z,-4.56
2022-12-17T17:51:52.407Z,-4.71
2022-12-17T17:54:16.153Z,-4.73
2022-12-17T17:56:43.265Z,-4.80
2022-12-17T17:59:12.645Z,-4.79
2022-12-17T18:01:41.723Z,-4.79
2022-12-17T18:04:12.039Z,-4.76
2022-12-17T18:06:57.413Z,-4.79
2022-12-17T18:09:27.881Z,-4.82
2022-12-17T18:11:54.568Z,-4.85
2022-12-17T18:14:21.161Z,-4.82
2022-12-17T18:16:48.540Z,-4.86
2022-12-17T18:19:22.837Z,-4.91
2022-12-17T18:21:49.894Z,-4.97
2022-12-17T18:24:22.783Z,-4.91
2022-12-17T18:26:50.836Z,-4.95
2022-12-17T18:29:26.840Z,-4.95
2022-12-17T18:31:53.650Z,-4.97
2022-12-17T18:34:23.714Z,-5.00
2022-12-17T18:36:50.412Z,-5.11
2022-12-17T18:39:19.656Z,-5.11
2022-12-17T18:42:06.249Z,-5.12
2022-12-17T18:44:36.202Z,-5.17
2022-12-17T18:47:02.931Z,-5.18
2022-12-17T18:49:29.734Z,-5.15
2022-12-17T18:51:56.567Z,-5.17
2022-12-17T18:54:25.459Z,-5.22
2022-12-17T18:57:00.976Z,-5.21
2022-12-17T18:59:30.404Z,-5.20
2022-12-17T19:01:58.126Z,-5.23
2022-12-17T19:04:26.353Z,-5.19
2022-12-17T19:06:53.689Z,-5.19
2022-12-17T19:09:26.490Z,-5.20
2022-12-17T19:11:54.143Z,-5.23
2022-12-17T19:14:22.442Z,-5.20
2022-12-17T19:16:50.868Z,-5.24
2022-12-17T19:19:18.245Z,-5.30
2022-12-17T19:21:45.392Z,-5.27
2022-12-17T19:24:14.967Z,-5.30
2022-12-17T19:26:44.573Z,-5.32
2022-12-17T19:29:13.436Z,-5.36
2022-12-17T19:31:40.824Z,-5.32
2022-12-17T19:34:10.909Z,-5.39
2022-12-17T19:36:38.554Z,-5.33
2022-12-17T19:39:10.597Z,-5.33
2022-12-17T19:41:37.221Z,-5.40
2022-12-17T19:44:06.308Z,-5.51
2022-12-17T19:46:34.951Z,-5.52
2022-12-17T19:49:02.502Z,-5.52
2022-12-17T19:51:31.039Z,-5.55
2022-12-17T19:53:59.732Z,-5.56
2022-12-17T19:56:31.868Z,-5.60
2022-12-17T19:59:02.138Z,-5.59
2022-12-17T20:01:31.075Z,-5.61
2022-12-17T20:03:58.333Z,-5.65
2022-12-17T20:06:28.356Z,-5.70
2022-12-17T20:08:55.235Z,-5.70
2022-12-17T20:11:34.329Z,-5.68
2022-12-17T20:14:21.058Z,-5.75
2022-12-17T20:16:58.742Z,-5.75
2022-12-17T20:19:33.171Z,-5.84
2022-12-17T20:22:01.448Z,-5.82
2022-12-17T20:24:31.563Z,-5.78
2022-12-17T20:26:59.601Z,-5.80
2022-12-17T20:29:26.496Z,-5.78
2022-12-17T20:31:54.080Z,-5.78
2022-12-17T20:34:25.076Z,-5.80
2022-12-17T20:36:52.901Z,-5.81
2022-12-17T20:39:26.216Z,-5.88
2022-12-17T20:41:54.112Z,-5.90
2022-12-17T20:44:20.701Z,-5.92
2022-12-17T20:46:47.374Z,-5.95
2022-12-17T20:49:14.698Z,-5.89
2022-12-17T20:51:41.550Z,-5.97
2022-12-17T20:54:08.885Z,-5.98
2022-12-17T20:56:35.643Z,-5.98
2022-12-17T20:59:05.856Z,-5.93
2022-12-17T21:01:35.711Z,-5.99
2022-12-17T21:04:03.748Z,-5.99
2022-12-17T21:06:35.639Z,-5.97
2022-12-17T21:09:02.310Z,-6.08
2022-12-17T21:11:31.289Z,-6.08
2022-12-17T21:13:58.797Z,-6.13
2022-12-17T21:16:28.074Z,-6.11
2022-12-17T21:18:56.815Z,-6.15
2022-12-17T21:21:26.496Z,-6.16
2022-12-17T21:23:53.402Z,-6.20
2022-12-17T21:26:23.183Z,-6.23
2022-12-17T21:28:51.762Z,-6.28
2022-12-17T21:31:21.509Z,-6.40
2022-12-17T21:33:49.286Z,-6.44
2022-12-17T21:36:18.693Z,-6.47
2022-12-17T21:38:45.928Z,-6.53
2022-12-17T21:41:21.203Z,-6.59
2022-12-17T21:43:48.251Z,-6.58
2022-12-17T21:46:14.914Z,-6.54
2022-12-17T21:48:43.062Z,-6.52
2022-12-17T21:51:12.532Z,-6.48
2022-12-17T21:53:42.804Z,-6.47
2022-12-17T21:56:14.953Z,-6.49
2022-12-17T21:58:43.108Z,-6.44
2022-12-17T22:01:19.938Z,-6.44
2022-12-17T22:03:53.513Z,-6.42
2022-12-17T22:06:24.148Z,-6.49
2022-12-17T22:08:58.664Z,-6.46
2022-12-17T22:11:29.927Z,-6.48
2022-12-17T22:14:07.801Z,-6.46
2022-12-17T22:16:43.246Z,-6.41
2022-12-17T22:19:13.370Z,-6.38
2022-12-17T22:21:42.433Z,-6.29
2022-12-17T22:24:13.961Z,-6.31
2022-12-17T22:26:40.576Z,-6.31
2022-12-17T22:29:07.156Z,-6.26
2022-12-17T22:31:51.975Z,-6.27
2022-12-17T22:35:20.744Z,-6.29
2022-12-17T22:39:29.108Z,-6.25
2022-12-17T22:43:38.733Z,-6.26
2022-12-17T22:44:38.490Z,-6.23
2022-12-17T22:45:44.043Z,-6.28
2022-12-17T22:48:11.913Z,-6.20
2022-12-17T22:50:47.140Z,-6.21
2022-12-17T22:53:25.971Z,-6.31
2022-12-17T22:55:52.827Z,-6.34
2022-12-17T22:58:20.596Z,-6.31
2022-12-17T23:00:47.238Z,-6.33
2022-12-17T23:03:14.160Z,-6.30
2022-12-17T23:05:40.856Z,-6.29
2022-12-17T23:08:07.559Z,-6.31
2022-12-17T23:10:34.221Z,-6.27
2022-12-17T23:13:00.971Z,-6.26
2022-12-17T23:15:31.022Z,-6.23
2022-12-17T23:17:59.838Z,-6.29
2022-12-17T23:20:28.143Z,-6.36
2022-12-17T23:22:54.799Z,-6.38
2022-12-17T23:25:22.019Z,-6.36
2022-12-17T23:27:49.216Z,-6.36
2022-12-17T23:30:17.561Z,-6.30
2022-12-17T23:32:44.938Z,-6.24
2022-12-17T23:35:12.579Z,-6.23
2022-12-17T23:37:40.675Z,-6.15
2022-12-17T23:40:11.463Z,-6.17
2022-12-17T23:42:38.273Z,-6.13
2022-12-17T23:45:06.977Z,-6.04
2022-12-17T23:47:33.562Z,-6.06
2022-12-17T23:50:00.143Z,-6.01
2022-12-17T23:52:26.763Z,-6.10
2022-12-17T23:54:53.368Z,-6.11
2022-12-17T23:57:20.018Z,-6.11
2022-12-17T23:59:46.836Z,-6.18
